Time;durP1;ratioP1;P1;durP2;ratioP2;P2;SDS_P1;SDS_P2;PMS_P1;PMS_P2;Temp;Humidity;BMP_temperature;BMP_pressure;BME280_temperature;BME280_humidity;BME280_pressure;Samples;Min_cycle;Max_cycle;Signal;HPM_P1;HPM_P2
2024/01/10 00:01:43;;;;;;;25.63;13.07;;;-7.90;1.00;;;;;;5032264;28;20539;-81
2024/01/10 00:04:09;;;;;;;23.17;11.37;;;-8.00;99.90;;;;;;5032567;28;20174;-81
2024/01/10 00:06:34;;;;;;;25.43;11.97;;;-7.90;1.00;;;;;;5031043;28;20724;-81
2024/01/10 00:09:00;;;;;;;29.63;12.10;;;-7.80;90.40;;;;;;5030950;28;20261;-81
2024/01/10 00:11:26;;;;;;;23.07;11.57;;;-7.80;67.90;;;;;;5031834;28;20234;-81
2024/01/10 00:13:51;;;;;;;23.60;12.03;;;-7.80;20.00;;;;;;5032263;28;20213;-81
2024/01/10 00:16:17;;;;;;;24.13;11.63;;;-7.80;1.00;;;;;;5030884;28;20181;-81
2024/01/10 00:18:42;;;;;;;25.03;12.33;;;-7.70;1.00;;;;;;5031187;28;20194;-81
2024/01/10 00:21:09;;;;;;;21.60;10.67;;;-7.70;1.00;;;;;;5031658;28;20697;-81
2024/01/10 00:23:35;;;;;;;25.57;11.93;;;-7.60;1.00;;;;;;5032322;28;20182;-81
2024/01/10 00:26:01;;;;;;;29.53;14.67;;;-7.60;99.90;;;;;;5032261;28;20474;-81
2024/01/10 00:28:26;;;;;;;22.20;11.17;;;-7.70;1.00;;;;;;5032637;28;20542;-81
2024/01/10 00:30:52;;;;;;;26.07;13.27;;;-7.80;1.00;;;;;;5030265;28;20594;-81
2024/01/10 00:33:17;;;;;;;27.60;12.37;;;-7.80;1.00;;;;;;5031121;28;20186;-81
2024/01/10 00:35:43;;;;;;;27.47;13.37;;;-7.70;36.80;;;;;;5032052;28;20253;-81
2024/01/10 00:38:09;;;;;;;27.50;12.90;;;-7.80;1.00;;;;;;5028165;28;20260;-82
2024/01/10 00:40:35;;;;;;;27.93;13.30;;;-7.80;99.90;;;;;;5019575;28;20202;-81
2024/01/10 00:43:01;;;;;;;28.03;12.67;;;-7.80;99.40;;;;;;5031940;28;20671;-81
2024/01/10 00:45:26;;;;;;;25.40;12.30;;;-7.70;1.00;;;;;;5031789;28;20182;-81
2024/01/10 00:47:52;;;;;;;20.50;10.93;;;-7.70;1.00;;;;;;5034621;28;20464;-81
2024/01/10 00:50:18;;;;;;;17.87;9.23;;;-7.60;1.00;;;;;;5035143;28;20177;-81
2024/01/10 00:52:46;;;;;;;27.10;13.00;;;-7.50;99.90;;;;;;5034447;28;20181;-81
2024/01/10 00:55:12;;;;;;;25.17;13.53;;;-7.60;99.90;;;;;;5035566;28;20174;-81
2024/01/10 00:57:38;;;;;;;27.23;13.17;;;-7.80;1.00;;;;;;5034063;28;20482;-81
2024/01/10 01:00:09;;;;;;;31.03;13.80;;;-7.80;99.90;;;;;;5034787;28;20254;-81
2024/01/10 01:02:35;;;;;;;27.63;13.13;;;-7.80;4.60;;;;;;5034361;28;20202;-81
2024/01/10 01:05:01;;;;;;;26.67;12.17;;;-7.70;25.20;;;;;;5034397;28;20420;-81
2024/01/10 01:07:27;;;;;;;28.80;12.43;;;-7.80;1.00;;;;;;5035395;28;20511;-81
2024/01/10 01:09:53;;;;;;;28.37;12.80;;;-7.80;99.90;;;;;;5033799;28;20512;-80
2024/01/10 01:12:18;;;;;;;19.13;10.50;;;-7.70;99.90;;;;;;5034930;28;20182;-81
2024/01/10 01:14:44;;;;;;;26.80;12.23;;;-7.60;1.00;;;;;;5035042;28;20183;-81
2024/01/10 01:17:09;;;;;;;25.77;12.93;;;-7.60;99.90;;;;;;5034092;28;20209;-81
2024/01/10 01:19:35;;;;;;;26.23;12.90;;;-7.70;1.00;;;;;;5035105;28;20190;-81
2024/01/10 01:22:01;;;;;;;25.03;12.03;;;-7.70;1.00;;;;;;5034701;28;20203;-81
2024/01/10 01:24:26;;;;;;;25.73;12.83;;;-7.70;1.00;;;;;;5033828;28;20179;-81
2024/01/10 01:26:52;;;;;;;26.17;12.40;;;-7.70;1.00;;;;;;5033529;28;20684;-81
2024/01/10 01:29:17;;;;;;;27.00;13.23;;;-7.70;1.00;;;;;;5033443;28;20216;-81
2024/01/10 01:31:43;;;;;;;28.17;14.00;;;-7.60;1.00;;;;;;5034863;28;20185;-81
2024/01/10 01:34:09;;;;;;;32.30;14.17;;;-7.70;1.00;;;;;;5034616;28;20178;-81
2024/01/10 01:36:34;;;;;;;27.77;13.07;;;-7.80;99.90;;;;;;5033545;28;20178;-81
2024/01/10 01:39:00;;;;;;;27.67;13.60;;;-7.80;1.00;;;;;;5034694;28;20181;-81
2024/01/10 01:41:25;;;;;;;28.80;13.93;;;-7.80;1.00;;;;;;5034087;28;20202;-81
2024/01/10 01:43:51;;;;;;;24.47;10.87;;;-7.70;1.00;;;;;;5034763;28;20206;-81
2024/01/10 01:46:17;;;;;;;29.00;13.57;;;-7.60;1.00;;;;;;5034480;28;20193;-81
2024/01/10 01:48:43;;;;;;;25.77;13.27;;;-7.60;99.90;;;;;;5033630;28;20202;-81
2024/01/10 01:51:09;;;;;;;27.27;13.03;;;-7.60;99.90;;;;;;5034372;28;20175;-81
2024/01/10 01:53:36;;;;;;;29.53;13.20;;;-7.60;99.90;;;;;;5034539;28;20175;-81
2024/01/10 01:56:07;;;;;;;27.33;13.60;;;-7.70;1.00;;;;;;5034280;28;20436;-81
2024/01/10 01:58:34;;;;;;;27.00;12.53;;;-7.80;1.00;;;;;;5033555;28;21135;-81
2024/01/10 02:01:02;;;;;;;30.10;13.20;;;-7.70;1.00;;;;;;5034001;28;20453;-81
2024/01/10 02:03:27;;;;;;;25.30;13.67;;;-7.70;99.90;;;;;;5034535;28;20917;-81
2024/01/10 02:05:54;;;;;;;31.30;13.80;;;-7.70;99.90;;;;;;5034297;28;20489;-81
2024/01/10 02:08:20;;;;;;;28.27;14.13;;;-7.70;1.00;;;;;;5033943;28;20566;-81
2024/01/10 02:10:45;;;;;;;29.07;13.33;;;-7.80;99.90;;;;;;5033709;28;20421;-81
2024/01/10 02:13:11;;;;;;;30.17;13.20;;;-7.70;99.90;;;;;;5033223;28;20242;-80
2024/01/10 02:15:38;;;;;;;27.77;12.27;;;-7.80;1.00;;;;;;5033064;28;20178;-81
2024/01/10 02:18:05;;;;;;;30.10;13.40;;;-7.80;1.00;;;;;;5032952;28;20620;-81
2024/01/10 02:20:31;;;;;;;27.43;14.07;;;-7.80;1.00;;;;;;5033527;28;20460;-81
2024/01/10 02:22:56;;;;;;;33.47;13.80;;;-7.90;1.00;;;;;;5034388;28;20847;-81
2024/01/10 02:25:22;;;;;;;30.70;13.40;;;-7.90;99.90;;;;;;5032430;28;20182;-81
2024/01/10 02:27:48;;;;;;;29.60;14.63;;;-8.00;70.80;;;;;;5033855;28;20198;-82
2024/01/10 02:30:14;;;;;;;26.90;14.20;;;-8.00;1.00;;;;;;5032035;28;20182;-81
2024/01/10 02:32:40;;;;;;;30.33;13.83;;;-8.00;1.00;;;;;;5032613;28;20185;-81
2024/01/10 02:35:06;;;;;;;30.57;14.60;;;-8.00;99.90;;;;;;5033786;28;20182;-81
2024/01/10 02:37:31;;;;;;;27.03;12.00;;;-7.90;99.90;;;;;;5032214;28;20198;-81
2024/01/10 02:39:57;;;;;;;31.30;13.97;;;-7.90;1.00;;;;;;5032962;28;20419;-81
2024/01/10 02:42:23;;;;;;;32.13;14.17;;;-8.00;99.90;;;;;;5033729;28;20211;-81
2024/01/10 02:44:48;;;;;;;26.73;13.13;;;-8.00;99.90;;;;;;5033596;28;20174;-82
2024/01/10 02:47:14;;;;;;;28.00;14.03;;;-8.00;1.00;;;;;;5032242;28;20205;-81
2024/01/10 02:49:39;;;;;;;32.57;14.60;;;-8.00;99.90;;;;;;5033529;28;20182;-81
2024/01/10 02:52:05;;;;;;;29.83;13.90;;;-8.10;99.90;;;;;;5032822;28;20178;-81
2024/01/10 02:54:31;;;;;;;32.03;14.90;;;-8.00;1.00;;;;;;5033320;28;20689;-81
2024/01/10 02:56:56;;;;;;;28.47;13.90;;;-8.10;1.00;;;;;;5032064;28;20256;-81
2024/01/10 02:59:22;;;;;;;29.87;14.27;;;-8.00;1.00;;;;;;5033403;28;20721;-81
2024/01/10 03:01:47;;;;;;;30.97;13.83;;;-8.10;99.90;;;;;;5031724;28;20682;-81
2024/01/10 03:04:13;;;;;;;31.30;14.57;;;-8.30;1.00;;;;;;5033407;28;20867;-82
2024/01/10 03:06:38;;;;;;;27.40;13.77;;;-8.40;99.90;;;;;;5032950;28;20189;-81
2024/01/10 03:09:04;;;;;;;30.33;14.07;;;-8.40;1.00;;;;;;5031796;28;20217;-81
2024/01/10 03:11:30;;;;;;;28.80;13.50;;;-8.50;99.90;;;;;;5032882;28;20193;-81
2024/01/10 03:14:22;;;;;;;33.47;13.50;;;-8.40;99.90;;;;;;5033013;28;20178;-81
2024/01/10 03:16:48;;;;;;;31.03;13.37;;;-8.40;1.00;;;;;;5029991;28;20464;-81
2024/01/10 03:19:15;;;;;;;24.70;12.60;;;-8.50;1.00;;;;;;5032850;28;20417;-78
2024/01/10 03:21:40;;;;;;;26.27;13.30;;;-8.40;90.40;;;;;;5031099;28;20202;-81
2024/01/10 03:24:06;;;;;;;25.63;12.83;;;-8.40;99.90;;;;;;5031397;28;20425;-81
2024/01/10 03:26:32;;;;;;;32.07;13.73;;;-8.30;1.00;;;;;;5031603;28;20174;-81
2024/01/10 03:28:58;;;;;;;29.30;14.17;;;-8.30;1.00;;;;;;5033080;28;20178;-80
2024/01/10 03:31:23;;;;;;;26.03;14.10;;;-8.30;99.90;;;;;;5031040;28;20190;-81
2024/01/10 03:33:50;;;;;;;30.47;14.37;;;-8.30;99.90;;;;;;5032514;28;20421;-81
2024/01/10 03:36:17;;;;;;;24.20;12.57;;;-8.30;99.90;;;;;;5032671;28;20610;-81
2024/01/10 03:38:43;;;;;;;33.10;14.20;;;-8.20;1.00;;;;;;5032981;28;20484;-81
2024/01/10 03:41:19;;;;;;;28.50;13.70;;;-8.10;1.00;;;;;;5032008;28;20461;-81
2024/01/10 03:43:45;;;;;;;30.97;13.30;;;-8.00;1.00;;;;;;5032529;28;20486;-81
2024/01/10 03:46:11;;;;;;;19.00;10.17;;;-7.90;1.00;;;;;;5032546;28;20410;-81
2024/01/10 03:48:38;;;;;;;35.90;14.33;;;-7.80;99.90;;;;;;5032396;28;20559;-81
2024/01/10 03:51:04;;;;;;;35.10;15.07;;;-7.80;54.70;;;;;;5031744;28;20662;-81
2024/01/10 03:53:30;;;;;;;29.07;13.13;;;-7.80;99.90;;;;;;5032568;28;20417;-81
2024/01/10 03:55:55;;;;;;;30.20;14.47;;;-7.80;99.90;;;;;;5032458;28;20178;-81
2024/01/10 03:58:21;;;;;;;26.70;14.13;;;-7.80;99.90;;;;;;5031242;28;20448;-81
2024/01/10 04:00:47;;;;;;;25.60;12.93;;;-7.80;1.00;;;;;;5031808;28;20260;-81
2024/01/10 04:03:13;;;;;;;30.10;12.87;;;-7.80;1.00;;;;;;5031115;28;20174;-80
2024/01/10 04:05:38;;;;;;;30.23;14.67;;;-7.80;99.90;;;;;;5032464;28;20185;-81
2024/01/10 04:08:04;;;;;;;26.57;12.77;;;-7.90;93.20;;;;;;5030983;28;20201;-82
2024/01/10 04:10:30;;;;;;;27.50;13.90;;;-7.80;99.90;;;;;;5031725;28;20677;-81
2024/01/10 04:12:55;;;;;;;32.00;14.37;;;-7.80;99.90;;;;;;5032346;28;20413;-81
2024/01/10 04:15:21;;;;;;;27.57;13.73;;;-7.70;1.00;;;;;;5030974;28;20264;-81
2024/01/10 04:17:47;;;;;;;21.50;11.33;;;-7.70;1.00;;;;;;5032305;28;20221;-81
2024/01/10 04:20:13;;;;;;;28.17;13.77;;;-7.60;1.00;;;;;;5031498;28;20170;-81
2024/01/10 04:22:38;;;;;;;30.47;14.13;;;-7.60;1.00;;;;;;5034287;28;20220;-81
2024/01/10 04:25:06;;;;;;;29.50;14.20;;;-7.60;99.90;;;;;;5035208;28;20285;-81
2024/01/10 04:27:32;;;;;;;27.20;13.27;;;-7.70;99.90;;;;;;5034936;28;20195;-81
2024/01/10 04:29:57;;;;;;;32.10;15.17;;;-7.70;99.90;;;;;;5034348;28;20788;-81
2024/01/10 04:32:23;;;;;;;26.30;13.20;;;-7.70;23.80;;;;;;5035082;28;20261;-81
2024/01/10 04:34:49;;;;;;;30.63;13.87;;;-7.70;99.90;;;;;;5034673;28;20593;-81
2024/01/10 04:37:14;;;;;;;32.67;14.77;;;-7.60;99.90;;;;;;5035809;28;20206;-81
2024/01/10 04:39:42;;;;;;;23.97;11.90;;;-7.70;1.00;;;;;;5035832;28;20183;-81
2024/01/10 04:42:08;;;;;;;33.73;14.67;;;-7.60;85.40;;;;;;5033855;28;20289;-81
2024/01/10 04:44:34;;;;;;;27.97;13.97;;;-7.60;22.80;;;;;;5034616;28;20460;-81
2024/01/10 04:46:59;;;;;;;32.30;13.73;;;-7.60;1.00;;;;;;5089883;22;20194;-77
2024/01/10 04:49:25;;;;;;;31.23;14.00;;;-7.60;1.00;;;;;;5015252;28;20194;-77
2024/01/10 04:51:51;;;;;;;29.87;14.97;;;-7.70;12.20;;;;;;5016348;28;20176;-78
2024/01/10 04:54:16;;;;;;;25.67;13.47;;;-7.60;99.90;;;;;;5015191;28;20617;-77
2024/01/10 04:56:42;;;;;;;31.73;13.87;;;-7.60;52.30;;;;;;5015127;28;20414;-77
2024/01/10 04:59:08;;;;;;;30.73;13.87;;;-7.60;99.90;;;;;;5016718;28;20571;-77
2024/01/10 05:01:33;;;;;;;29.10;14.67;;;-7.50;99.90;;;;;;5016052;28;20210;-77
2024/01/10 05:03:59;;;;;;;30.67;14.73;;;-7.50;99.90;;;;;;5015501;28;20175;-77
2024/01/10 05:06:25;;;;;;;34.17;13.87;;;-7.50;1.00;;;;;;5016383;28;20172;-78
2024/01/10 05:08:50;;;;;;;27.57;13.67;;;-7.50;1.00;;;;;;5015066;28;20671;-78
2024/01/10 05:11:16;;;;;;;30.80;14.50;;;-7.40;1.00;;;;;;5014544;28;20175;-77
2024/01/10 05:13:45;;;;;;;32.00;15.10;;;-7.50;1.00;;;;;;5015962;28;20179;-78
2024/01/10 05:16:10;;;;;;;34.00;14.97;;;-7.50;49.60;;;;;;5015809;28;20706;-77
2024/01/10 05:18:36;;;;;;;30.90;14.67;;;-7.60;94.30;;;;;;5016126;28;20430;-77
2024/01/10 05:21:03;;;;;;;31.07;15.13;;;-7.60;99.90;;;;;;5014644;28;20203;-78
2024/01/10 05:23:29;;;;;;;31.97;14.57;;;-7.50;99.90;;;;;;5015166;28;20313;-78
2024/01/10 05:25:55;;;;;;;29.73;13.83;;;-7.50;99.90;;;;;;5014512;28;20793;-78
2024/01/10 05:28:21;;;;;;;32.87;15.53;;;-7.50;99.90;;;;;;5014634;28;20996;-77
2024/01/10 05:30:46;;;;;;;31.93;14.63;;;-7.60;99.90;;;;;;5015434;28;20199;-77
2024/01/10 05:33:12;;;;;;;30.77;15.40;;;-7.60;1.00;;;;;;5013775;28;20186;-77
2024/01/10 05:35:40;;;;;;;30.50;15.63;;;-7.70;1.00;;;;;;5014571;28;20179;-77
2024/01/10 05:38:06;;;;;;;30.20;14.87;;;-7.60;1.00;;;;;;5014751;28;20195;-77
2024/01/10 05:40:32;;;;;;;29.47;14.40;;;-7.60;99.90;;;;;;5014122;28;20441;-77
2024/01/10 05:43:01;;;;;;;26.23;12.67;;;-7.60;48.20;;;;;;5014474;28;20549;-78
2024/01/10 05:45:27;;;;;;;28.13;13.83;;;-7.60;1.00;;;;;;5014569;28;20189;-77
2024/01/10 05:47:53;;;;;;;29.50;15.13;;;-7.50;1.00;;;;;;5014306;28;20817;-77
2024/01/10 05:50:19;;;;;;;30.47;14.73;;;-7.50;1.00;;;;;;5014040;28;20489;-77
2024/01/10 05:52:45;;;;;;;32.63;14.97;;;-7.40;1.00;;;;;;5014347;28;20175;-77
2024/01/10 05:55:11;;;;;;;30.50;14.50;;;-7.40;1.00;;;;;;5015086;28;20229;-78
2024/01/10 05:57:37;;;;;;;33.10;14.03;;;-7.50;99.90;;;;;;5014813;28;20210;-78
2024/01/10 06:00:04;;;;;;;31.83;14.70;;;-7.40;99.90;;;;;;5013041;28;20289;-77
2024/01/10 06:02:30;;;;;;;28.20;13.80;;;-7.40;99.90;;;;;;5013759;28;20462;-77
2024/01/10 06:04:56;;;;;;;30.80;14.63;;;-7.30;1.00;;;;;;5014669;28;20441;-78
2024/01/10 06:07:21;;;;;;;30.37;14.70;;;-7.30;1.00;;;;;;5014616;28;20191;-78
2024/01/10 06:09:47;;;;;;;31.63;15.43;;;-7.40;1.00;;;;;;5014829;28;20182;-78
2024/01/10 06:12:13;;;;;;;35.17;16.17;;;-7.50;1.00;;;;;;5013451;28;20206;-77
2024/01/10 06:14:39;;;;;;;31.80;16.47;;;-7.50;1.00;;;;;;5013205;28;20179;-77
2024/01/10 06:17:05;;;;;;;31.50;15.60;;;-7.70;99.90;;;;;;5012861;28;20449;-78
2024/01/10 06:19:31;;;;;;;34.30;16.00;;;-7.60;1.00;;;;;;5012541;28;20430;-78
2024/01/10 06:21:57;;;;;;;32.80;14.97;;;-7.50;99.90;;;;;;5013686;28;20966;-78
2024/01/10 06:24:23;;;;;;;35.90;16.17;;;-7.50;99.90;;;;;;5013637;28;20206;-78
2024/01/10 06:26:49;;;;;;;32.40;15.83;;;-7.50;99.90;;;;;;5014345;28;20411;-78
2024/01/10 06:29:15;;;;;;;29.77;14.67;;;-7.50;55.00;;;;;;5013098;28;20263;-78
2024/01/10 06:31:41;;;;;;;33.10;16.27;;;-7.50;99.90;;;;;;5012463;28;20457;-77
2024/01/10 06:34:06;;;;;;;31.07;15.97;;;-7.00;1.00;;;;;;5012381;28;20422;-78
2024/01/10 06:36:32;;;;;;;32.67;14.87;;;-7.10;99.90;;;;;;5012499;28;20262;-78
2024/01/10 06:38:57;;;;;;;33.47;15.17;;;-7.10;1.00;;;;;;5012418;28;20627;-78
2024/01/10 06:41:24;;;;;;;31.10;15.47;;;-7.10;1.00;;;;;;5011711;28;20322;-80
2024/01/10 06:43:51;;;;;;;29.17;15.23;;;-7.20;99.90;;;;;;5012361;28;20190;-79
2024/01/10 06:46:16;;;;;;;35.50;16.83;;;-7.20;1.00;;;;;;5014353;28;20418;-78
2024/01/10 06:48:42;;;;;;;22.97;11.17;;;-7.30;66.10;;;;;;5015549;28;20450;-77
2024/01/10 06:51:12;;;;;;;27.30;14.17;;;-6.20;99.90;;;;;;5012036;28;20186;-78
2024/01/10 06:53:38;;;;;;;29.53;14.93;;;-4.40;99.90;;;;;;5012721;28;20732;-78
2024/01/10 06:56:04;;;;;;;32.40;15.80;;;-3.50;99.90;;;;;;5012544;28;20499;-77
2024/01/10 06:58:30;;;;;;;30.90;16.00;;;-2.90;99.90;;;;;;5015023;28;20405;-80
2024/01/10 07:00:55;;;;;;;36.60;16.17;;;-2.40;1.00;;;;;;5015582;28;20239;-80
2024/01/10 07:03:21;;;;;;;37.10;16.33;;;-3.10;1.00;;;;;;5017586;28;20186;-78
2024/01/10 07:05:46;;;;;;;32.37;15.97;;;-4.00;99.90;;;;;;5019936;28;20179;-82
2024/01/10 07:08:12;;;;;;;31.07;16.57;;;-4.90;1.00;;;;;;5017203;28;20285;-81
2024/01/10 07:10:38;;;;;;;33.67;15.13;;;-5.50;99.90;;;;;;5016575;28;20210;-80
2024/01/10 07:13:04;;;;;;;31.23;15.30;;;-5.90;1.00;;;;;;5016534;28;20548;-80
2024/01/10 07:15:30;;;;;;;31.60;16.27;;;-6.30;1.00;;;;;;5015095;28;20177;-82
2024/01/10 07:17:55;;;;;;;31.40;15.67;;;-6.40;1.00;;;;;;5016085;28;20194;-79
2024/01/10 07:20:23;;;;;;;31.73;15.23;;;-6.50;78.50;;;;;;5013205;28;20256;-77
2024/01/10 07:22:49;;;;;;;20.23;10.47;;;-6.50;99.90;;;;;;5012031;28;20204;-77
2024/01/10 07:25:15;;;;;;;44.73;20.97;;;-3.40;99.90;;;;;;5013949;28;20415;-80
2024/01/10 07:27:41;;;;;;;36.17;16.87;;;2.10;99.90;;;;;;5022702;28;20193;-81
2024/01/10 07:30:13;;;;;;;33.03;17.30;;;0.40;99.90;;;;;;5020834;28;20182;-79
2024/01/10 07:32:40;;;;;;;36.07;16.60;;;-1.20;1.00;;;;;;5015476;28;20176;-79
2024/01/10 07:35:09;;;;;;;28.53;17.10;;;-2.50;99.90;;;;;;5015327;28;20268;-79
2024/01/10 07:37:35;;;;;;;32.13;17.40;;;-3.50;99.90;;;;;;5015904;28;20196;-80
2024/01/10 07:40:01;;;;;;;31.57;17.07;;;-4.40;1.00;;;;;;5015552;28;20218;-79
2024/01/10 07:42:26;;;;;;;33.80;16.73;;;-4.90;1.00;;;;;;5014251;28;20198;-81
2024/01/10 07:44:53;;;;;;;31.17;16.77;;;-5.40;99.90;;;;;;5016326;28;20185;-81
2024/01/10 07:47:19;;;;;;;32.93;16.20;;;-5.90;1.00;;;;;;5015954;28;20202;-81
2024/01/10 07:49:45;;;;;;;32.97;16.33;;;-6.00;99.90;;;;;;5015847;28;20179;-82
2024/01/10 07:52:10;;;;;;;36.13;18.07;;;-6.20;1.00;;;;;;5016676;28;20182;-81
2024/01/10 07:54:36;;;;;;;38.03;17.47;;;-6.30;1.00;;;;;;5016122;28;20181;-81
2024/01/10 07:57:02;;;;;;;31.67;16.20;;;-6.20;1.00;;;;;;5016002;28;20178;-82
2024/01/10 07:59:27;;;;;;;30.80;16.00;;;-6.50;7.60;;;;;;5016467;28;20178;-82
2024/01/10 08:01:59;;;;;;;32.60;15.90;;;-6.40;99.90;;;;;;5017714;28;21064;-81
2024/01/10 08:04:26;;;;;;;35.03;17.63;;;-6.40;49.60;;;;;;5014486;28;20169;-81
2024/01/10 08:06:52;;;;;;;33.70;17.73;;;-6.40;99.90;;;;;;5011832;28;20421;-81
2024/01/10 08:09:18;;;;;;;36.43;17.50;;;-6.40;1.00;;;;;;5012912;28;20436;-80
2024/01/10 08:11:45;;;;;;;35.50;17.67;;;-6.50;99.90;;;;;;5012350;28;20292;-80
2024/01/10 08:14:11;;;;;;;38.93;17.37;;;-6.40;1.00;;;;;;5012902;28;20447;-80
2024/01/10 08:16:36;;;;;;;35.30;16.90;;;-6.50;1.00;;;;;;5012647;28;20506;-79
2024/01/10 08:19:02;;;;;;;35.40;17.47;;;-6.40;1.00;;;;;;5012635;28;20202;-79
2024/01/10 08:21:27;;;;;;;34.53;17.47;;;-6.50;1.00;;;;;;5011797;28;20207;-80
2024/01/10 08:23:53;;;;;;;34.43;17.17;;;-6.50;1.00;;;;;;5013400;28;20268;-81
2024/01/10 08:26:18;;;;;;;37.07;17.93;;;-6.50;99.90;;;;;;5011934;28;20641;-82
2024/01/10 08:28:44;;;;;;;38.43;17.73;;;-6.60;1.00;;;;;;5010759;28;20210;-82
2024/01/10 08:31:09;;;;;;;39.90;17.17;;;-6.70;99.90;;;;;;5011055;28;20172;-82
2024/01/10 08:33:35;;;;;;;34.37;16.87;;;-6.60;1.00;;;;;;5012581;28;20171;-83
2024/01/10 08:36:00;;;;;;;33.00;16.00;;;-6.60;1.00;;;;;;5013064;28;20180;-82
2024/01/10 08:38:26;;;;;;;30.97;14.97;;;-6.50;1.00;;;;;;5013124;28;20630;-82
2024/01/10 08:40:52;;;;;;;30.20;15.50;;;-6.40;1.00;;;;;;5013214;28;20218;-82
2024/01/10 08:43:18;;;;;;;35.23;16.40;;;-6.40;1.00;;;;;;5012034;28;20177;-83
2024/01/10 08:45:44;;;;;;;36.37;17.20;;;-6.40;1.00;;;;;;5012203;28;20429;-80
2024/01/10 08:48:11;;;;;;;39.00;16.00;;;-6.30;1.00;;;;;;5012281;28;20217;-81
2024/01/10 08:50:37;;;;;;;36.80;16.77;;;-6.30;99.90;;;;;;5012042;28;20565;-81
2024/01/10 08:53:05;;;;;;;35.63;17.43;;;-6.30;99.90;;;;;;5012315;28;20415;-81
2024/01/10 08:55:31;;;;;;;37.07;15.33;;;-6.30;1.00;;;;;;5012891;28;20704;-81
2024/01/10 08:57:57;;;;;;;34.53;16.63;;;-6.10;99.90;;;;;;5011954;28;20462;-81
2024/01/10 09:00:24;;;;;;;36.13;16.67;;;-6.10;99.90;;;;;;5011077;28;20920;-81
2024/01/10 09:02:50;;;;;;;31.07;15.47;;;-6.00;1.00;;;;;;5013112;28;20211;-80
2024/01/10 09:05:16;;;;;;;31.97;14.57;;;-5.90;99.90;;;;;;5013343;28;20431;-81
2024/01/10 09:07:42;;;;;;;32.93;16.57;;;-5.70;99.90;;;;;;5013844;28;20276;-81
2024/01/10 09:10:08;;;;;;;34.33;16.73;;;-5.70;99.90;;;;;;5014527;28;20564;-80
2024/01/10 09:12:34;;;;;;;34.70;16.90;;;-5.60;1.00;;;;;;5014767;28;20232;-81
2024/01/10 09:15:00;;;;;;;36.40;16.63;;;-5.50;1.00;;;;;;5015692;28;20235;-81
2024/01/10 09:17:27;;;;;;;32.13;15.97;;;-5.40;1.00;;;;;;5016457;28;20443;-79
2024/01/10 09:19:53;;;;;;;33.93;15.47;;;-5.30;1.00;;;;;;5015850;28;20433;-80
2024/01/10 09:22:19;;;;;;;34.03;16.00;;;-5.20;1.00;;;;;;5015907;28;20453;-80
2024/01/10 09:24:44;;;;;;;34.80;16.33;;;-5.10;99.90;;;;;;5016139;28;20172;-78
2024/01/10 09:27:10;;;;;;;32.20;16.37;;;-5.00;1.00;;;;;;5014673;28;20274;-80
2024/01/10 09:29:36;;;;;;;30.53;14.97;;;-4.90;1.00;;;;;;5014771;28;20196;-80
2024/01/10 09:32:02;;;;;;;38.00;16.07;;;-4.70;1.00;;;;;;5015387;28;20183;-80
2024/01/10 09:34:28;;;;;;;32.00;15.47;;;-4.60;1.00;;;;;;5014743;28;20176;-80
2024/01/10 09:36:53;;;;;;;29.40;15.47;;;-4.50;99.90;;;;;;5014944;28;20239;-82
2024/01/10 09:39:19;;;;;;;28.77;16.07;;;-4.50;99.90;;;;;;5022154;28;20180;-80
2024/01/10 09:41:50;;;;;;;35.03;15.33;;;-4.50;99.90;;;;;;5013164;28;20283;-79
2024/01/10 09:44:17;;;;;;;41.67;18.60;;;-4.50;1.00;;;;;;5012471;28;20184;-80
2024/01/10 09:46:54;;;;;;;37.00;18.00;;;-4.40;99.90;;;;;;5012470;28;20413;-79
2024/01/10 09:49:23;;;;;;;32.93;16.00;;;-4.30;99.90;;;;;;5017242;28;20562;-80
2024/01/10 09:51:49;;;;;;;30.53;15.27;;;-4.10;99.90;;;;;;5017201;28;20472;-78
2024/01/10 09:54:16;;;;;;;30.87;15.93;;;-4.10;11.90;;;;;;5016398;28;20461;-85
2024/01/10 09:56:42;;;;;;;30.73;15.53;;;-4.00;99.90;;;;;;5016864;28;20509;-79
2024/01/10 09:59:10;;;;;;;36.37;17.63;;;-3.80;99.90;;;;;;5014703;28;21069;-78
2024/01/10 10:05:15;;;;;;;32.90;16.13;;;-3.20;1.00;;;;;;5015786;28;20231;-78
2024/01/10 10:07:47;;;;;;;33.10;16.00;;;-3.10;1.00;;;;;;5015180;28;20214;-78
2024/01/10 10:10:15;;;;;;;34.10;16.57;;;-3.00;99.90;;;;;;5014722;28;20658;-78
2024/01/10 10:12:47;;;;;;;32.93;15.47;;;-3.30;82.10;;;;;;5016644;28;20207;-78
2024/01/10 10:15:18;;;;;;;31.03;15.00;;;-3.40;99.90;;;;;;5015723;28;20171;-78
2024/01/10 10:17:48;;;;;;;33.67;15.47;;;-3.30;99.90;;;;;;5013991;28;20198;-78
2024/01/10 10:20:22;;;;;;;38.60;17.47;;;-3.30;99.90;;;;;;5013738;28;20171;-78
2024/01/10 10:23:10;;;;;;;29.93;16.23;;;-3.30;99.90;;;;;;5013452;28;20172;-78
2024/01/10 10:25:47;;;;;;;34.40;16.40;;;-3.20;99.90;;;;;;5013313;28;20226;-78
2024/01/10 10:28:13;;;;;;;32.60;16.17;;;-3.10;99.90;;;;;;5013283;28;20201;-78
2024/01/10 10:30:38;;;;;;;36.03;16.43;;;-3.10;99.90;;;;;;5014190;28;20605;-79
2024/01/10 10:33:08;;;;;;;34.83;16.90;;;-3.00;99.90;;;;;;5014636;28;20314;-78
2024/01/10 10:35:34;;;;;;;35.63;15.83;;;-3.00;99.90;;;;;;5015788;28;20167;-79
2024/01/10 10:38:00;;;;;;;36.60;17.27;;;-3.10;99.90;;;;;;5014784;28;20197;-79
2024/01/10 10:40:25;;;;;;;35.70;17.77;;;-3.00;99.90;;;;;;5013820;28;20175;-79
2024/01/10 10:42:57;;;;;;;34.87;18.17;;;-2.80;99.90;;;;;;5014553;28;20179;-79
2024/01/10 10:45:26;;;;;;;29.53;15.60;;;-2.50;99.90;;;;;;5014217;28;20179;-79
2024/01/10 10:48:02;;;;;;;34.10;17.47;;;-2.30;41.10;;;;;;5014458;28;20729;-78
2024/01/10 10:50:36;;;;;;;32.93;16.87;;;-2.20;1.00;;;;;;5012485;28;20275;-78
2024/01/10 10:53:03;;;;;;;34.17;16.53;;;-2.20;1.00;;;;;;5014448;28;20194;-77
2024/01/10 10:55:29;;;;;;;33.97;16.57;;;-2.10;1.00;;;;;;5014056;28;20199;-78
2024/01/10 10:57:57;;;;;;;34.00;15.83;;;-2.00;1.00;;;;;;5012247;28;20239;-78
2024/01/10 11:00:27;;;;;;;35.30;18.33;;;-2.00;1.00;;;;;;5013224;28;20263;-78
2024/01/10 11:02:57;;;;;;;35.80;17.80;;;-2.10;1.00;;;;;;5013971;28;20541;-78
2024/01/10 11:05:24;;;;;;;35.23;17.07;;;-2.10;1.00;;;;;;5012834;28;20226;-78
2024/01/10 11:07:51;;;;;;;32.47;16.47;;;-1.90;1.00;;;;;;5013779;28;20282;-78
2024/01/10 11:10:28;;;;;;;36.57;18.17;;;-1.80;1.00;;;;;;5013438;28;20214;-80
2024/01/10 11:13:25;;;;;;;28.90;15.87;;;-1.80;1.00;;;;;;5014276;28;20202;-79
2024/01/10 11:16:06;;;;;;;35.73;17.10;;;-1.70;1.00;;;;;;5014250;28;20650;-79
2024/01/10 11:18:59;;;;;;;36.50;17.87;;;-1.50;1.00;;;;;;5013525;28;20231;-80
2024/01/10 11:21:34;;;;;;;29.40;16.60;;;-1.10;1.00;;;;;;5013693;28;20164;-80
2024/01/10 11:24:01;;;;;;;35.07;17.53;;;-0.80;1.00;;;;;;5013271;28;20269;-80
2024/01/10 11:26:26;;;;;;;34.93;18.07;;;-0.80;99.90;;;;;;5012939;28;20555;-80
2024/01/10 11:28:52;;;;;;;31.80;17.57;;;-0.80;99.90;;;;;;5014015;28;20290;-80
2024/01/10 11:31:29;;;;;;;30.57;16.47;;;-0.70;99.90;;;;;;5011151;28;20203;-79
2024/01/10 11:33:56;;;;;;;33.30;18.30;;;-0.50;1.00;;;;;;5012789;28;20179;-79
2024/01/10 11:36:24;;;;;;;37.63;20.07;;;-0.10;99.90;;;;;;5013773;28;20185;-80
2024/01/10 11:38:51;;;;;;;34.03;17.40;;;0.00;99.90;;;;;;5013604;28;20280;-80
2024/01/10 11:41:24;;;;;;;29.93;15.33;;;0.10;99.90;;;;;;5012625;28;20174;-80
2024/01/10 11:44:12;;;;;;;32.60;16.47;;;0.30;1.00;;;;;;5014250;28;20201;-79
2024/01/10 11:46:38;;;;;;;31.27;16.67;;;1.30;99.90;;;;;;5014336;28;20179;-79
2024/01/10 11:49:07;;;;;;;33.00;18.07;;;2.20;99.90;;;;;;5013374;28;20210;-81
2024/01/10 11:51:36;;;;;;;33.20;18.47;;;2.50;19.40;;;;;;5011480;28;20294;-81
2024/01/10 11:54:02;;;;;;;33.40;17.60;;;2.00;1.00;;;;;;5012159;28;20194;-82
2024/01/10 11:56:38;;;;;;;29.40;15.83;;;;;;;;;;5013294;28;20180;-79
2024/01/10 11:59:11;;;;;;;28.50;16.00;;;3.90;99.90;;;;;;5013370;28;20196;-80
2024/01/10 12:01:41;;;;;;;32.37;17.20;;;4.60;99.90;;;;;;5013193;28;20308;-83
2024/01/10 12:04:07;;;;;;;30.93;16.90;;;4.40;28.80;;;;;;5013773;28;20178;-82
2024/01/10 12:06:38;;;;;;;30.77;18.00;;;3.30;1.00;;;;;;5012236;28;20560;-82
2024/01/10 12:09:08;;;;;;;30.67;17.37;;;2.10;1.00;;;;;;5013431;28;20648;-82
2024/01/10 12:11:35;;;;;;;33.23;18.20;;;1.70;1.00;;;;;;5013017;28;20217;-82
2024/01/10 12:14:02;;;;;;;34.60;20.73;;;1.30;64.80;;;;;;5012576;28;20168;-82
2024/01/10 12:16:29;;;;;;;46.63;33.77;;;1.40;99.90;;;;;;5013555;28;20177;-83
2024/01/10 12:18:54;;;;;;;36.33;21.33;;;1.50;99.90;;;;;;5012486;28;20187;-82
2024/01/10 12:21:20;;;;;;;38.03;20.97;;;1.50;99.90;;;;;;5011767;28;20180;-83
2024/01/10 12:23:47;;;;;;;34.10;19.13;;;1.50;44.70;;;;;;5013639;28;20254;-83
2024/01/10 12:26:13;;;;;;;31.57;17.87;;;1.60;24.50;;;;;;5015782;28;20210;-83
2024/01/10 12:28:39;;;;;;;33.27;19.10;;;1.90;18.30;;;;;;5016928;28;20195;-83
2024/01/10 12:31:07;;;;;;;34.47;19.20;;;2.10;1.00;;;;;;5017320;28;20176;-82
2024/01/10 12:33:33;;;;;;;35.23;18.77;;;2.10;1.00;;;;;;5016249;28;20175;-83
2024/01/10 12:36:06;;;;;;;33.40;18.40;;;2.20;1.00;;;;;;5016526;28;20172;-82